Time;durP1;ratioP1;P1;durP2;ratioP2;P2;SDS_P1;SDS_P2;PMS_P1;PMS_P2;Temp;Humidity;BMP_temperature;BMP_pressure;BME280_temperature;BME280_humidity;BME280_pressure;Samples;Min_cycle;Max_cycle;Signal;HPM_P1;HPM_P2
2023/06/17 00:00:08;;;;;;;;;12.33;10.33;;;;;;;;118121;1190;24903;-68
2023/06/17 00:02:56;;;;;;;;;11.00;11.00;;;;;;;;118084;1183;26366;-68
2023/06/17 00:05:25;;;;;;;;;12.50;12.00;;;;;;;;118128;1177;24976;-69
2023/06/17 00:07:54;;;;;;;;;13.50;11.75;;;;;;;;118113;1177;26049;-69
2023/06/17 00:10:22;;;;;;;;;13.33;11.33;;;;;;;;118101;1177;25221;-70
2023/06/17 00:12:51;;;;;;;;;16.00;12.00;;;;;;;;118098;1177;25580;-68
2023/06/17 00:15:20;;;;;;;;;10.00;9.00;;;;;;;;118104;1177;25521;-69
2023/06/17 00:17:50;;;;;;;;;11.50;11.00;;;;;;;;118121;1184;26242;-69
2023/06/17 00:20:18;;;;;;;;;12.00;12.00;;;;;;;;118111;1177;24920;-69
2023/06/17 00:22:48;;;;;;;;;14.00;13.00;;;;;;;;118159;1190;25358;-69
2023/06/17 00:25:17;;;;;;;;;9.67;9.67;;;;;;;;118144;1179;25573;-69
2023/06/17 00:27:45;;;;;;;;;12.00;10.25;;;;;;;;118120;1177;26046;-69
2023/06/17 00:30:14;;;;;;;;;14.00;10.33;;;;;;;;118109;1177;25284;-69
2023/06/17 00:32:42;;;;;;;;;14.00;11.33;;;;;;;;118132;1183;25395;-69
2023/06/17 00:35:11;;;;;;;;;12.75;11.00;;;;;;;;118121;1177;25043;-70
2023/06/17 00:37:40;;;;;;;;;9.00;9.00;;;;;;;;117970;1180;25545;-69
2023/06/17 00:40:09;;;;;;;;;13.50;11.50;;;;;;;;118146;1177;24929;-69
2023/06/17 00:42:39;;;;;;;;;13.33;12.33;;;;;;;;118105;1178;24796;-68
2023/06/17 00:45:08;;;;;;;;;16.33;12.00;;;;;;;;117942;1181;25557;-69
2023/06/17 00:47:38;;;;;;;;;12.00;10.25;;;;;;;;118086;1190;25108;-68
2023/06/17 00:50:12;;;;;;;;;12.75;9.50;;;;;;;;117961;1178;25505;-70
2023/06/17 00:52:42;;;;;;;;;11.33;11.33;;;;;;;;117882;1180;25478;-69
2023/06/17 00:55:11;;;;;;;;;11.67;10.00;;;;;;;;118221;1177;25053;-74
2023/06/17 00:57:40;;;;;;;;;12.33;10.67;;;;;;;;118155;1177;25542;-75
2023/06/17 01:00:10;;;;;;;;;14.00;12.75;;;;;;;;118151;1190;25617;-69
2023/06/17 01:02:40;;;;;;;;;14.25;10.75;;;;;;;;118101;1190;25453;-70
2023/06/17 01:05:11;;;;;;;;;12.00;12.00;;;;;;;;117962;1181;25114;-68
2023/06/17 01:07:52;;;;;;;;;18.50;11.50;;;;;;;;118136;1184;25539;-70
2023/06/17 01:10:42;;;;;;;;;13.25;12.00;;;;;;;;118093;1177;25471;-69
2023/06/17 01:13:12;;;;;;;;;12.00;10.67;;;;;;;;118113;1177;25223;-70
2023/06/17 01:15:41;;;;;;;;;13.00;12.00;;;;;;;;118107;1177;25580;-69
2023/06/17 01:18:11;;;;;;;;;13.00;11.00;;;;;;;;117981;1178;25081;-69
2023/06/17 01:20:40;;;;;;;;;9.25;9.25;;;;;;;;118080;1177;25965;-69
2023/06/17 01:23:10;;;;;;;;;14.50;13.00;;;;;;;;117981;1190;24805;-71
2023/06/17 01:25:39;;;;;;;;;15.25;13.75;;;;;;;;117969;1190;25671;-70
2023/06/17 01:28:19;;;;;;;;;15.50;14.25;;;;;;;;117983;1179;25527;-69
2023/06/17 01:30:48;;;;;;;;;12.75;10.00;;;;;;;;117955;1181;25536;-69
2023/06/17 01:33:17;;;;;;;;;14.00;11.33;;;;;;;;117923;1190;25002;-70
2023/06/17 01:36:04;;;;;;;;;7.00;7.00;;;;;;;;118160;1190;24857;-69
2023/06/17 01:38:33;;;;;;;;;12.75;11.25;;;;;;;;118098;1190;25153;-69
2023/06/17 01:41:06;;;;;;;;;13.00;13.00;;;;;;;;118099;1177;25444;-69
2023/06/17 01:43:35;;;;;;;;;16.33;12.33;;;;;;;;117968;1179;25475;-70
2023/06/17 01:46:04;;;;;;;;;13.33;13.33;;;;;;;;117991;1183;25049;-70
2023/06/17 01:48:33;;;;;;;;;15.00;11.67;;;;;;;;117972;1180;25417;-69
2023/06/17 01:51:01;;;;;;;;;13.00;10.25;;;;;;;;118002;1180;25508;-69
2023/06/17 01:53:30;;;;;;;;;12.50;12.00;;;;;;;;117970;1181;24840;-70
2023/06/17 01:55:58;;;;;;;;;16.00;10.75;;;;;;;;118093;1190;25368;-70
2023/06/17 01:58:27;;;;;;;;;14.00;14.00;;;;;;;;118135;1177;26404;-70
2023/06/17 02:00:55;;;;;;;;;12.00;10.67;;;;;;;;118072;1176;25087;-70
2023/06/17 02:03:24;;;;;;;;;8.00;7.00;;;;;;;;117974;1181;25621;-69
2023/06/17 02:05:53;;;;;;;;;14.00;11.50;;;;;;;;117886;1179;24829;-69
2023/06/17 02:08:23;;;;;;;;;9.67;9.67;;;;;;;;117832;1179;26424;-70
2023/06/17 02:10:51;;;;;;;;;14.00;12.00;;;;;;;;117953;1178;24805;-70
2023/06/17 02:13:20;;;;;;;;;11.33;10.67;;;;;;;;117898;1184;25387;-70
2023/06/17 02:15:49;;;;;;;;;10.00;9.75;;;;;;;;117860;1190;25246;-70
2023/06/17 02:18:18;;;;;;;;;8.00;8.00;;;;;;;;117989;1190;25012;-70
2023/06/17 02:20:47;;;;;;;;;12.50;11.50;;;;;;;;117921;1177;25066;-70
2023/06/17 02:23:16;;;;;;;;;14.00;12.67;;;;;;;;118154;1178;24914;-70
2023/06/17 02:25:45;;;;;;;;;10.67;9.67;;;;;;;;118140;1178;25267;-70
2023/06/17 02:28:13;;;;;;;;;14.75;12.50;;;;;;;;118097;1178;25594;-70
2023/06/17 02:30:42;;;;;;;;;13.00;11.00;;;;;;;;118114;1178;24722;-70
2023/06/17 02:33:11;;;;;;;;;16.00;14.00;;;;;;;;117934;1186;25530;-70
2023/06/17 02:35:41;;;;;;;;;15.67;14.00;;;;;;;;117952;1179;25591;-70
2023/06/17 02:38:09;;;;;;;;;15.33;15.33;;;;;;;;118152;1189;25614;-70
2023/06/17 02:40:38;;;;;;;;;14.67;13.33;;;;;;;;118111;1177;25593;-69
2023/06/17 02:43:07;;;;;;;;;16.33;13.67;;;;;;;;118127;1190;25082;-70
2023/06/17 02:45:35;;;;;;;;;12.00;12.00;;;;;;;;118083;1190;25462;-70
2023/06/17 02:48:05;;;;;;;;;13.75;12.50;;;;;;;;118101;1176;24967;-70
2023/06/17 02:50:33;;;;;;;;;17.25;12.25;;;;;;;;118078;1190;24911;-70
2023/06/17 02:53:04;;;;;;;;;13.00;12.75;;;;;;;;118142;1181;25248;-70
2023/06/17 02:55:33;;;;;;;;;14.00;10.00;;;;;;;;118112;1183;25400;-69
2023/06/17 02:58:02;;;;;;;;;12.33;11.00;;;;;;;;117931;1190;25137;-68
2023/06/17 03:00:32;;;;;;;;;12.33;11.33;;;;;;;;118120;1190;25733;-70
2023/06/17 03:03:01;;;;;;;;;14.00;11.67;;;;;;;;117983;1179;24686;-70
2023/06/17 03:09:11;;;;;;;;;15.50;12.50;;;;;;;;118383;1175;25660;-70
2023/06/17 03:11:39;;;;;;;;;16.67;15.33;;;;;;;;117846;1180;24996;-70
2023/06/17 03:14:08;;;;;;;;;14.33;13.33;;;;;;;;117950;1192;24985;-71
2023/06/17 03:16:38;;;;;;;;;10.00;10.00;;;;;;;;117949;1179;24967;-70
2023/06/17 03:19:07;;;;;;;;;12.00;9.50;;;;;;;;117509;1180;25391;-70
2023/06/17 03:21:40;;;;;;;;;15.00;13.25;;;;;;;;117925;1190;26335;-70
2023/06/17 03:24:09;;;;;;;;;12.67;12.00;;;;;;;;117853;1180;25246;-70
2023/06/17 03:26:38;;;;;;;;;17.00;14.00;;;;;;;;117939;1183;24894;-70
2023/06/17 03:29:07;;;;;;;;;14.50;11.50;;;;;;;;117972;1180;24934;-70
2023/06/17 03:31:36;;;;;;;;;14.00;10.00;;;;;;;;117478;1183;25235;-70
2023/06/17 03:34:05;;;;;;;;;13.33;9.67;;;;;;;;117874;1180;25653;-71
2023/06/17 03:36:33;;;;;;;;;11.67;8.00;;;;;;;;117807;1192;25632;-70
2023/06/17 03:39:02;;;;;;;;;11.67;10.33;;;;;;;;117790;1192;25620;-71
2023/06/17 03:41:31;;;;;;;;;16.00;13.33;;;;;;;;117501;1192;25367;-71
2023/06/17 03:44:00;;;;;;;;;16.00;11.00;;;;;;;;117922;1181;25107;-69
2023/06/17 03:46:29;;;;;;;;;13.33;13.00;;;;;;;;117673;1186;24854;-69
2023/06/17 03:48:57;;;;;;;;;11.33;9.33;;;;;;;;117910;1181;24866;-69
2023/06/17 03:51:26;;;;;;;;;17.00;13.33;;;;;;;;117897;1180;25076;-69
2023/06/17 03:53:54;;;;;;;;;13.67;13.00;;;;;;;;117894;1179;24866;-69
2023/06/17 03:56:23;;;;;;;;;15.00;10.00;;;;;;;;117910;1180;24964;-69
2023/06/17 03:58:53;;;;;;;;;14.00;12.00;;;;;;;;117867;1192;25172;-71
2023/06/17 04:01:22;;;;;;;;;12.00;12.00;;;;;;;;117846;1179;25565;-69
2023/06/17 04:03:51;;;;;;;;;11.00;11.00;;;;;;;;117841;1180;25657;-69
2023/06/17 04:06:20;;;;;;;;;16.00;13.33;;;;;;;;117892;1180;25353;-69
2023/06/17 04:08:49;;;;;;;;;15.33;13.33;;;;;;;;117899;1179;25529;-70
2023/06/17 04:11:17;;;;;;;;;17.50;13.00;;;;;;;;117876;1181;25366;-70
2023/06/17 04:13:46;;;;;;;;;14.00;14.00;;;;;;;;117924;1180;25186;-69
2023/06/17 04:16:15;;;;;;;;;11.00;11.00;;;;;;;;117875;1192;25137;-70
2023/06/17 04:18:43;;;;;;;;;14.33;13.67;;;;;;;;117658;1180;25004;-69
2023/06/17 04:21:12;;;;;;;;;14.50;13.50;;;;;;;;117889;1180;25570;-69
2023/06/17 04:23:40;;;;;;;;;12.33;12.00;;;;;;;;117890;1180;24718;-69
2023/06/17 04:26:12;;;;;;;;;11.00;11.00;;;;;;;;117966;1181;25720;-69
2023/06/17 04:28:41;;;;;;;;;14.50;12.25;;;;;;;;117908;1188;25037;-69
2023/06/17 04:31:10;;;;;;;;;15.00;13.00;;;;;;;;117927;1180;25578;-70
2023/06/17 04:33:40;;;;;;;;;14.50;13.50;;;;;;;;117940;1180;24870;-70
2023/06/17 04:36:09;;;;;;;;;13.50;11.50;;;;;;;;117955;1180;25626;-69
2023/06/17 04:38:38;;;;;;;;;18.00;14.50;;;;;;;;117937;1192;25552;-71
2023/06/17 04:41:07;;;;;;;;;19.00;16.00;;;;;;;;117922;1181;25098;-70
2023/06/17 04:43:39;;;;;;;;;16.00;13.00;;;;;;;;117908;1192;25541;-69
2023/06/17 04:46:08;;;;;;;;;18.00;16.50;;;;;;;;117526;1180;25221;-70
2023/06/17 04:48:39;;;;;;;;;14.00;14.00;;;;;;;;117915;1180;25134;-70
2023/06/17 04:51:07;;;;;;;;;15.67;12.33;;;;;;;;117914;1192;24910;-70
2023/06/17 04:53:38;;;;;;;;;15.00;14.00;;;;;;;;117879;1179;25709;-71
2023/06/17 04:56:07;;;;;;;;;14.00;14.00;;;;;;;;117873;1183;25122;-71
2023/06/17 04:58:35;;;;;;;;;17.00;14.00;;;;;;;;117828;1179;25396;-69
2023/06/17 05:01:04;;;;;;;;;14.67;13.67;;;;;;;;117845;1180;24685;-74
2023/06/17 05:03:33;;;;;;;;;14.00;12.50;;;;;;;;117880;1181;25270;-73
2023/06/17 05:06:02;;;;;;;;;14.75;13.75;;;;;;;;117827;1186;25518;-74
2023/06/17 05:08:30;;;;;;;;;19.50;18.50;;;;;;;;117961;1181;25047;-77
2023/06/17 05:10:59;;;;;;;;;14.00;14.00;;;;;;;;117949;1180;24883;-69
2023/06/17 05:13:27;;;;;;;;;15.75;15.25;;;;;;;;117926;1180;24965;-71
2023/06/17 05:15:56;;;;;;;;;13.50;12.00;;;;;;;;117960;1180;25302;-72
2023/06/17 05:18:25;;;;;;;;;17.00;14.50;;;;;;;;117912;1180;25315;-70
2023/06/17 05:20:53;;;;;;;;;12.25;12.25;;;;;;;;117911;1183;24827;-71
2023/06/17 05:23:22;;;;;;;;;14.25;14.25;;;;;;;;117926;1181;25160;-70
2023/06/17 05:25:50;;;;;;;;;15.50;14.00;;;;;;;;117922;1179;25234;-72
2023/06/17 05:28:19;;;;;;;;;15.33;14.67;;;;;;;;117944;1192;24869;-70
2023/06/17 05:30:48;;;;;;;;;13.00;13.00;;;;;;;;117917;1192;25112;-71
2023/06/17 05:33:16;;;;;;;;;12.00;10.50;;;;;;;;117921;1180;24817;-70
2023/06/17 05:35:45;;;;;;;;;17.00;13.50;;;;;;;;117845;1180;25046;-70
2023/06/17 05:38:13;;;;;;;;;12.50;12.50;;;;;;;;117886;1192;25221;-71
2023/06/17 05:40:42;;;;;;;;;13.00;9.00;;;;;;;;117922;1183;25515;-69
2023/06/17 05:43:11;;;;;;;;;18.00;17.00;;;;;;;;117949;1179;24724;-71
2023/06/17 05:45:39;;;;;;;;;18.50;15.50;;;;;;;;117921;1180;25266;-70
2023/06/17 05:48:08;;;;;;;;;14.50;13.50;;;;;;;;117901;1187;25360;-70
2023/06/17 05:50:36;;;;;;;;;15.50;12.00;;;;;;;;117905;1179;25687;-70
2023/06/17 05:53:05;;;;;;;;;14.25;13.50;;;;;;;;117894;1186;25384;-70
2023/06/17 05:55:34;;;;;;;;;14.00;14.00;;;;;;;;117952;1179;25046;-70
2023/06/17 05:58:03;;;;;;;;;17.33;16.33;;;;;;;;117816;1180;25416;-71
2023/06/17 06:00:31;;;;;;;;;16.67;15.00;;;;;;;;117826;1180;24856;-70
2023/06/17 06:03:00;;;;;;;;;20.50;17.50;;;;;;;;117901;1192;24945;-70
2023/06/17 06:05:29;;;;;;;;;19.00;17.33;;;;;;;;117830;1189;25234;-70
2023/06/17 06:07:58;;;;;;;;;17.00;16.00;;;;;;;;117922;1179;25441;-68
2023/06/17 06:10:28;;;;;;;;;15.00;15.00;;;;;;;;117923;1179;24842;-69
2023/06/17 06:12:56;;;;;;;;;15.50;13.00;;;;;;;;117836;1180;24930;-69
2023/06/17 06:15:25;;;;;;;;;20.00;14.50;;;;;;;;117939;1192;24894;-71
2023/06/17 06:17:54;;;;;;;;;16.00;15.33;;;;;;;;117849;1187;25697;-70
2023/06/17 06:20:23;;;;;;;;;23.33;19.00;;;;;;;;117941;1191;25207;-69
2023/06/17 06:22:52;;;;;;;;;16.50;15.00;;;;;;;;117934;1189;24963;-70
2023/06/17 06:25:21;;;;;;;;;18.00;15.67;;;;;;;;117925;1189;25225;-70
2023/06/17 06:27:52;;;;;;;;;15.33;14.67;;;;;;;;117942;1181;24991;-69
2023/06/17 06:30:21;;;;;;;;;17.00;15.50;;;;;;;;117925;1180;25338;-70
2023/06/17 06:32:50;;;;;;;;;14.50;14.00;;;;;;;;117955;1192;25421;-68
2023/06/17 06:35:19;;;;;;;;;18.33;17.33;;;;;;;;117922;1187;25150;-71
2023/06/17 06:37:47;;;;;;;;;17.00;17.00;;;;;;;;117939;1181;24685;-70
2023/06/17 06:40:16;;;;;;;;;16.00;14.00;;;;;;;;117931;1180;24881;-69
2023/06/17 06:42:45;;;;;;;;;16.00;15.50;;;;;;;;117690;1181;25434;-69
2023/06/17 06:45:14;;;;;;;;;16.00;14.00;;;;;;;;117953;1179;25267;-70
2023/06/17 06:47:42;;;;;;;;;17.50;15.75;;;;;;;;117895;1180;24934;-71
2023/06/17 06:50:11;;;;;;;;;20.00;16.00;;;;;;;;117900;1181;25600;-71
2023/06/17 06:52:39;;;;;;;;;21.33;18.00;;;;;;;;117649;1180;25683;-71
2023/06/17 06:55:08;;;;;;;;;16.00;14.00;;;;;;;;117935;1183;25665;-71
2023/06/17 06:57:37;;;;;;;;;15.33;14.67;;;;;;;;117959;1179;25352;-70
2023/06/17 07:00:09;;;;;;;;;22.00;17.67;;;;;;;;117862;1181;24784;-69
2023/06/17 07:02:37;;;;;;;;;14.00;12.67;;;;;;;;117621;1180;24893;-69
2023/06/17 07:05:07;;;;;;;;;18.50;15.50;;;;;;;;117835;1184;24910;-68
2023/06/17 07:07:36;;;;;;;;;18.00;16.00;;;;;;;;117957;1180;25505;-73
2023/06/17 07:10:05;;;;;;;;;17.00;15.33;;;;;;;;117912;1180;25552;-74
2023/06/17 07:12:34;;;;;;;;;17.33;16.00;;;;;;;;117903;1192;25427;-70
2023/06/17 07:15:03;;;;;;;;;16.67;16.00;;;;;;;;117946;1190;25540;-70
2023/06/17 07:17:31;;;;;;;;;20.67;17.67;;;;;;;;117958;1183;25146;-70
2023/06/17 07:20:00;;;;;;;;;17.00;16.00;;;;;;;;117917;1181;25292;-69
2023/06/17 07:22:28;;;;;;;;;18.75;16.25;;;;;;;;117927;1192;24731;-68
2023/06/17 07:24:57;;;;;;;;;17.00;17.00;;;;;;;;117948;1180;25068;-67
2023/06/17 07:27:26;;;;;;;;;22.50;16.75;;;;;;;;117950;1192;24973;-69
2023/06/17 07:29:54;;;;;;;;;20.00;19.50;;;;;;;;117914;1180;25409;-69
2023/06/17 07:32:23;;;;;;;;;15.50;15.50;;;;;;;;117860;1180;25155;-68
2023/06/17 07:34:53;;;;;;;;;21.67;16.33;;;;;;;;117960;1187;25684;-68
2023/06/17 07:37:25;;;;;;;;;21.00;21.00;;;;;;;;117930;1179;25570;-67
2023/06/17 07:39:53;;;;;;;;;16.33;15.00;;;;;;;;117841;1192;25059;-68
2023/06/17 07:42:22;;;;;;;;;17.00;14.33;;;;;;;;117958;1180;25655;-68
2023/06/17 07:44:50;;;;;;;;;17.00;16.67;;;;;;;;117892;1181;24829;-68
2023/06/17 07:47:20;;;;;;;;;20.00;16.00;;;;;;;;117935;1180;25672;-68
2023/06/17 07:49:49;;;;;;;;;18.67;17.33;;;;;;;;117944;1192;25045;-68
2023/06/17 07:52:17;;;;;;;;;17.00;16.00;;;;;;;;117941;1180;25785;-67
2023/06/17 07:54:47;;;;;;;;;18.50;15.00;;;;;;;;117946;1181;25247;-67
2023/06/17 07:57:16;;;;;;;;;16.00;16.00;;;;;;;;117940;1181;25487;-68
2023/06/17 07:59:45;;;;;;;;;14.00;14.00;;;;;;;;117927;1192;26120;-69
2023/06/17 08:02:14;;;;;;;;;17.50;16.50;;;;;;;;117935;1179;25106;-68
2023/06/17 08:04:42;;;;;;;;;14.50;14.00;;;;;;;;117904;1181;25734;-67
2023/06/17 08:07:13;;;;;;;;;14.00;10.67;;;;;;;;117965;1179;25292;-67
2023/06/17 08:09:41;;;;;;;;;13.50;12.50;;;;;;;;117929;1192;25517;-67
2023/06/17 08:12:10;;;;;;;;;12.33;12.33;;;;;;;;117815;1180;25147;-66
2023/06/17 08:14:38;;;;;;;;;16.00;14.00;;;;;;;;117795;1180;24787;-67
2023/06/17 08:17:07;;;;;;;;;20.67;16.67;;;;;;;;117921;1181;24721;-67
2023/06/17 08:19:35;;;;;;;;;19.00;16.00;;;;;;;;117905;1183;24975;-68
2023/06/17 08:22:05;;;;;;;;;16.33;12.67;;;;;;;;117899;1180;25094;-66
2023/06/17 08:24:33;;;;;;;;;16.50;11.50;;;;;;;;117908;1192;25434;-67
2023/06/17 08:27:04;;;;;;;;;13.00;12.00;;;;;;;;117900;1179;25648;-70
2023/06/17 08:29:33;;;;;;;;;15.00;15.00;;;;;;;;117867;1187;25675;-69
2023/06/17 08:32:02;;;;;;;;;15.67;13.33;;;;;;;;117959;1181;25261;-70
2023/06/17 08:34:32;;;;;;;;;15.00;14.00;;;;;;;;117914;1180;25484;-71
2023/06/17 08:37:07;;;;;;;;;12.00;10.67;;;;;;;;117854;1180;24801;-71
2023/06/17 08:39:39;;;;;;;;;12.67;12.33;;;;;;;;117678;1180;25182;-70
2023/06/17 08:42:08;;;;;;;;;12.00;11.00;;;;;;;;117853;1190;25281;-71
2023/06/17 08:44:43;;;;;;;;;19.25;16.00;;;;;;;;117935;1192;27474;-70
2023/06/17 08:47:15;;;;;;;;;12.00;11.00;;;;;;;;117927;1179;25386;-70
2023/06/17 08:49:44;;;;;;;;;15.33;14.00;;;;;;;;117928;1187;25507;-69
2023/06/17 08:52:14;;;;;;;;;14.50;11.00;;;;;;;;117891;1180;25585;-72
2023/06/17 08:54:42;;;;;;;;;17.00;13.00;;;;;;;;117501;1182;24968;-69
2023/06/17 08:57:12;;;;;;;;;12.75;12.50;;;;;;;;117682;1192;24943;-70
2023/06/17 08:59:41;;;;;;;;;14.00;14.00;;;;;;;;117917;1179;25437;-71
2023/06/17 09:02:10;;;;;;;;;15.33;14.00;;;;;;;;117919;1180;25074;-72
2023/06/17 09:04:40;;;;;;;;;16.00;13.00;;;;;;;;117873;1180;25270;-73
2023/06/17 09:07:09;;;;;;;;;13.50;11.00;;;;;;;;117798;1179;25592;-71
2023/06/17 09:09:38;;;;;;;;;15.50;14.50;;;;;;;;117936;1179;25093;-72
2023/06/17 09:12:08;;;;;;;;;15.00;12.00;;;;;;;;117928;1179;25173;-74
2023/06/17 09:14:36;;;;;;;;;14.00;9.67;;;;;;;;117851;1192;25527;-68
2023/06/17 09:17:05;;;;;;;;;13.67;11.67;;;;;;;;117903;1181;25290;-68
2023/06/17 09:19:40;;;;;;;;;14.00;14.00;;;;;;;;117913;1180;25705;-70
2023/06/17 09:22:12;;;;;;;;;16.25;14.00;;;;;;;;117886;1180;25580;-72
2023/06/17 09:24:42;;;;;;;;;13.67;12.67;;;;;;;;117821;1183;25094;-66
2023/06/17 09:27:21;;;;;;;;;17.50;14.50;;;;;;;;117642;1192;25487;-71
2023/06/17 09:30:06;;;;;;;;;16.00;14.33;;;;;;;;117816;1179;24740;-69
2023/06/17 09:32:39;;;;;;;;;11.67;11.67;;;;;;;;117919;1192;25553;-70
2023/06/17 09:35:14;;;;;;;;;13.33;13.33;;;;;;;;117924;1192;25408;-71
2023/06/17 09:37:44;;;;;;;;;17.00;14.00;;;;;;;;117879;1180;24864;-69
2023/06/17 09:40:33;;;;;;;;;14.00;14.00;;;;;;;;117534;1181;25133;-69
2023/06/17 09:43:02;;;;;;;;;16.00;14.00;;;;;;;;117832;1189;25265;-68
2023/06/17 09:45:34;;;;;;;;;14.00;10.33;;;;;;;;117534;1192;25417;-72
2023/06/17 09:48:04;;;;;;;;;15.00;13.50;;;;;;;;117748;1180;25166;-71
2023/06/17 09:50:32;;;;;;;;;13.67;10.00;;;;;;;;117917;1191;25683;-73
2023/06/17 09:53:01;;;;;;;;;13.33;12.67;;;;;;;;117912;1181;25618;-71
2023/06/17 09:55:30;;;;;;;;;13.00;13.00;;;;;;;;118106;1181;25745;-72
2023/06/17 09:57:59;;;;;;;;;16.00;10.00;;;;;;;;117938;1180;25695;-68
2023/06/17 10:00:29;;;;;;;;;13.33;13.00;;;;;;;;117645;1192;26208;-68
2023/06/17 10:02:57;;;;;;;;;14.33;12.00;;;;;;;;117666;1188;25496;-68
2023/06/17 10:05:27;;;;;;;;;10.75;10.25;;;;;;;;117867;1186;25297;-68
2023/06/17 10:07:56;;;;;;;;;14.50;12.00;;;;;;;;117886;1192;25599;-67
2023/06/17 10:10:25;;;;;;;;;16.75;9.50;;;;;;;;117479;1183;25440;-68
2023/06/17 10:12:57;;;;;;;;;15.50;12.50;;;;;;;;117917;1183;25705;-68
2023/06/17 10:15:26;;;;;;;;;13.00;13.00;;;;;;;;117619;1189;25814;-68
2023/06/17 10:17:56;;;;;;;;;13.25;10.00;;;;;;;;117815;1179;25561;-68
2023/06/17 10:20:31;;;;;;;;;14.00;13.00;;;;;;;;117822;1181;25418;-69
2023/06/17 10:23:01;;;;;;;;;13.50;9.00;;;;;;;;117848;1192;24907;-68
2023/06/17 10:25:29;;;;;;;;;11.50;11.50;;;;;;;;117913;1181;24811;-68
2023/06/17 10:28:02;;;;;;;;;13.67;11.33;;;;;;;;117672;1186;25239;-67
2023/06/17 10:30:32;;;;;;;;;11.50;11.00;;;;;;;;117653;1187;25224;-67
2023/06/17 10:33:02;;;;;;;;;10.00;10.00;;;;;;;;117836;1179;25297;-68
2023/06/17 10:35:44;;;;;;;;;14.50;10.00;;;;;;;;117793;1180;25369;-67
2023/06/17 10:38:33;;;;;;;;;9.00;9.00;;;;;;;;117867;1179;24986;-68
2023/06/17 10:41:01;;;;;;;;;10.00;9.00;;;;;;;;117798;1180;25473;-69
2023/06/17 10:43:38;;;;;;;;;11.50;11.50;;;;;;;;117921;1179;25237;-68
2023/06/17 10:46:07;;;;;;;;;7.67;7.67;;;;;;;;117854;1179;25490;-68
2023/06/17 10:48:36;;;;;;;;;13.00;11.00;;;;;;;;117640;1192;25078;-68
2023/06/17 10:51:11;;;;;;;;;7.33;7.33;;;;;;;;117869;1180;24865;-69
2023/06/17 10:53:47;;;;;;;;;14.50;9.00;;;;;;;;117830;1180;25595;-68
2023/06/17 10:56:15;;;;;;;;;7.25;7.25;;;;;;;;117669;1180;25107;-68
2023/06/17 10:58:46;;;;;;;;;15.00;10.25;;;;;;;;117893;1184;24984;-68
2023/06/17 11:01:15;;;;;;;;;9.75;8.25;;;;;;;;117876;1180;25172;-68
2023/06/17 11:03:44;;;;;;;;;9.00;8.00;;;;;;;;117919;1188;24763;-72
2023/06/17 11:06:13;;;;;;;;;11.50;8.75;;;;;;;;117892;1192;26385;-68
2023/06/17 11:08:42;;;;;;;;;10.00;10.00;;;;;;;;117866;1192;24912;-68
2023/06/17 11:11:15;;;;;;;;;9.50;8.00;;;;;;;;117825;1190;25704;-68
2023/06/17 11:13:50;;;;;;;;;11.00;10.00;;;;;;;;117861;1179;25105;-74
2023/06/17 11:16:19;;;;;;;;;9.00;8.00;;;;;;;;117772;1180;24825;-74
2023/06/17 11:18:47;;;;;;;;;13.50;10.00;;;;;;;;117919;1187;25212;-69
2023/06/17 11:21:19;;;;;;;;;9.50;9.50;;;;;;;;117875;1180;25582;-68
2023/06/17 11:23:47;;;;;;;;;15.00;10.67;;;;;;;;117874;1191;24972;-71
2023/06/17 11:26:17;;;;;;;;;14.33;9.00;;;;;;;;117869;1191;25485;-70
2023/06/17 11:28:47;;;;;;;;;8.33;8.33;;;;;;;;117799;1181;25417;-69
2023/06/17 11:31:15;;;;;;;;;8.67;8.67;;;;;;;;117811;1192;25089;-68
2023/06/17 11:33:44;;;;;;;;;13.00;10.00;;;;;;;;117645;1180;24791;-68
2023/06/17 11:36:13;;;;;;;;;12.50;10.00;;;;;;;;117635;1180;25221;-67
2023/06/17 11:38:42;;;;;;;;;10.00;8.00;;;;;;;;117786;1179;24756;-68
2023/06/17 11:41:11;;;;;;;;;8.50;7.00;;;;;;;;117608;1180;25316;-68
2023/06/17 11:43:39;;;;;;;;;10.50;10.50;;;;;;;;117788;1181;26179;-68
2023/06/17 11:46:08;;;;;;;;;9.67;9.00;;;;;;;;117527;1180;25413;-68
2023/06/17 11:48:37;;;;;;;;;9.00;7.33;;;;;;;;117577;1181;25541;-68
2023/06/17 11:51:06;;;;;;;;;10.00;8.00;;;;;;;;117808;1192;24984;-68
2023/06/17 11:53:36;;;;;;;;;8.00;8.00;;;;;;;;117644;1180;25233;-68
2023/06/17 11:56:06;;;;;;;;;7.50;7.50;;;;;;;;117887;1188;25517;-68
2023/06/17 11:58:39;;;;;;;;;7.50;7.50;;;;;;;;117517;1186;25846;-67
2023/06/17 12:01:09;;;;;;;;;9.25;7.00;;;;;;;;117864;1184;25150;-67
2023/06/17 12:03:38;;;;;;;;;10.50;10.00;;;;;;;;117834;1180;25101;-67
2023/06/17 12:06:07;;;;;;;;;9.00;9.00;;;;;;;;117507;1192;25206;-67
2023/06/17 12:08:36;;;;;;;;;12.00;12.00;;;;;;;;117894;1192;25416;-67
2023/06/17 12:11:09;;;;;;;;;13.50;11.50;;;;;;;;117920;1192;25569;-67
2023/06/17 12:13:42;;;;;;;;;11.67;9.00;;;;;;;;117816;1192;25470;-66
2023/06/17 12:16:11;;;;;;;;;12.25;10.75;;;;;;;;117858;1181;24681;-68
2023/06/17 12:18:50;;;;;;;;;9.00;9.00;;;;;;;;117923;1179;25201;-66
2023/06/17 12:21:20;;;;;;;;;9.67;7.33;;;;;;;;117889;1192;25204;-67
2023/06/17 12:23:51;;;;;;;;;11.00;9.00;;;;;;;;117504;1185;25697;-68
2023/06/17 12:26:20;;;;;;;;;9.00;7.00;;;;;;;;117824;1192;25319;-66
2023/06/17 12:28:49;;;;;;;;;7.00;7.00;;;;;;;;117846;1179;25487;-67
2023/06/17 12:31:18;;;;;;;;;8.75;8.25;;;;;;;;117910;1180;25366;-66
2023/06/17 12:33:47;;;;;;;;;7.00;7.00;;;;;;;;117865;1180;25086;-67
2023/06/17 12:36:16;;;;;;;;;6.33;6.33;;;;;;;;117489;1192;25387;-68
2023/06/17 12:38:45;;;;;;;;;7.50;7.50;;;;;;;;117882;1180;25475;-67
2023/06/17 12:41:15;;;;;;;;;8.33;6.67;;;;;;;;117895;1184;25085;-67
2023/06/17 12:43:44;;;;;;;;;8.33;8.33;;;;;;;;117903;1192;25294;-71
2023/06/17 12:46:17;;;;;;;;;12.00;9.00;;;;;;;;117643;1180;24916;-72
2023/06/17 12:48:47;;;;;;;;;8.50;6.00;;;;;;;;117547;1187;25619;-67
2023/06/17 12:51:16;;;;;;;;;9.67;7.33;;;;;;;;117928;1181;25343;-68
2023/06/17 12:53:44;;;;;;;;;9.00;8.00;;;;;;;;117763;1180;25499;-66
2023/06/17 12:56:13;;;;;;;;;11.50;9.00;;;;;;;;117908;1183;24799;-65
2023/06/17 12:58:41;;;;;;;;;7.33;7.33;;;;;;;;117799;1180;25200;-66
2023/06/17 13:01:10;;;;;;;;;11.00;9.00;;;;;;;;117846;1192;24672;-65
2023/06/17 13:03:38;;;;;;;;;7.33;7.33;;;;;;;;117873;1188;25476;-67
2023/06/17 13:06:07;;;;;;;;;10.33;8.00;;;;;;;;117927;1181;25156;-66
2023/06/17 13:08:37;;;;;;;;;9.00;7.00;;;;;;;;117833;1189;25667;-65
2023/06/17 13:11:06;;;;;;;;;9.50;9.00;;;;;;;;117926;1188;25456;-65
2023/06/17 13:13:34;;;;;;;;;9.00;9.00;;;;;;;;117879;1180;25374;-66
2023/06/17 13:16:03;;;;;;;;;12.00;10.00;;;;;;;;117815;1191;25661;-66
2023/06/17 13:18:32;;;;;;;;;9.00;9.00;;;;;;;;117654;1181;24889;-71
2023/06/17 13:21:00;;;;;;;;;10.00;10.00;;;;;;;;117908;1188;25687;-69
2023/06/17 13:23:29;;;;;;;;;13.50;7.50;;;;;;;;117910;1192;25589;-68
2023/06/17 13:25:58;;;;;;;;;9.00;9.00;;;;;;;;117695;1181;26353;-65
2023/06/17 13:28:28;;;;;;;;;7.67;7.67;;;;;;;;117653;1180;25300;-65
2023/06/17 13:31:01;;;;;;;;;9.00;9.00;;;;;;;;117685;1181;24708;-64
2023/06/17 13:33:29;;;;;;;;;9.00;8.50;;;;;;;;117902;1179;24959;-65
2023/06/17 13:35:58;;;;;;;;;6.00;6.00;;;;;;;;117648;1183;24773;-64
2023/06/17 13:38:26;;;;;;;;;9.00;8.00;;;;;;;;117902;1180;25247;-65
2023/06/17 13:40:55;;;;;;;;;10.00;9.00;;;;;;;;117931;1187;25134;-65
2023/06/17 13:43:23;;;;;;;;;7.50;7.50;;;;;;;;117899;1180;25525;-65
2023/06/17 13:45:52;;;;;;;;;9.00;8.33;;;;;;;;117895;1183;24947;-65
2023/06/17 13:48:21;;;;;;;;;11.25;9.00;;;;;;;;117849;1179;25340;-64
2023/06/17 13:50:50;;;;;;;;;7.00;7.00;;;;;;;;117895;1179;25208;-65
2023/06/17 13:53:18;;;;;;;;;6.00;6.00;;;;;;;;117885;1180;24818;-65
2023/06/17 13:55:48;;;;;;;;;5.00;5.00;;;;;;;;117924;1180;24759;-65
2023/06/17 13:58:16;;;;;;;;;7.75;7.75;;;;;;;;117915;1180;24977;-65
2023/06/17 14:00:45;;;;;;;;;6.67;6.67;;;;;;;;117881;1181;25204;-65
2023/06/17 14:03:14;;;;;;;;;7.00;7.00;;;;;;;;117981;1180;24890;-66
2023/06/17 14:05:45;;;;;;;;;9.75;9.00;;;;;;;;117612;1182;25445;-65
2023/06/17 14:08:14;;;;;;;;;9.50;8.50;;;;;;;;117936;1181;25278;-65
2023/06/17 14:10:42;;;;;;;;;12.00;9.00;;;;;;;;117857;1181;24771;-65
2023/06/17 14:13:12;;;;;;;;;10.00;9.00;;;;;;;;117833;1181;25671;-65
2023/06/17 14:15:40;;;;;;;;;10.00;10.00;;;;;;;;117880;1183;25584;-66
2023/06/17 14:18:09;;;;;;;;;13.00;10.00;;;;;;;;117860;1180;25661;-65
2023/06/17 14:20:37;;;;;;;;;10.50;8.50;;;;;;;;117917;1180;25124;-65
2023/06/17 14:23:07;;;;;;;;;11.00;11.00;;;;;;;;117523;1181;25447;-65
2023/06/17 14:25:36;;;;;;;;;5.00;5.00;;;;;;;;117927;1188;25452;-65
2023/06/17 14:28:04;;;;;;;;;8.50;8.50;;;;;;;;117902;1180;25975;-64